BBC Delaware — V2CN9 — position and weather

sailwx.info

Track history (hours):
 
Tides and Currents Weather Stations Pressure Air Temp Water Temp Dewpoint Dewpoint Depression Visibility Wind Speed Wind Dir Waves Ship Positions

BBC Delaware

Last reported at 2015-Apr-27 09:17 UTC. Time now 2015-May-25 13:37 UTC.
Position N 31°23' E 032°19'.
Warning: this ship's position is 28 days out of date.

Length 138 m; draft 7.7 m.

Type: Cargo ship. MMSI: 305057000.

Date/timePositionNaut miles runAvg speedWind from/ knotsBaromVisibWave heightAir tempDewpointWater temp
2015-Apr-27 09:17N 31°23' E 032°19'7 8.9
2015-Apr-27 08:31N 31°29' E 032°14'1111.4
2015-Apr-27 07:33N 31°37' E 032°06'1211.3
2015-Apr-27 06:31N 31°46' E 031°56'1111.6
2015-Apr-27 05:34N 31°49' E 031°43'1211.6
2015-Apr-27 04:31N 31°53' E 031°30'1512.0
2015-Apr-27 03:17N 31°57' E 031°13'3211.8
2015-Apr-27 00:32N 32°07' E 030°37'1211.7
2015-Apr-26 23:33N 32°11' E 030°24'1211.8
2015-Apr-26 22:33N 32°14' E 030°11'1211.9
2015-Apr-26 21:33N 32°18' E 029°57'1211.6
2015-Apr-26 20:33N 32°22' E 029°44'2711.5
2015-Apr-26 18:13N 32°30' E 029°14'2011.4
2015-Apr-26 16:28N 32°36' E 028°51'2311.5
2015-Apr-26 14:27N 32°44' E 028°25'1011.6
2015-Apr-26 13:33N 32°47' E 028°13'  
2015-Apr-24 03:32N 36°27' E 014°36'1312.6
2015-Apr-24 02:30N 36°31' E 014°20'1212.6
2015-Apr-24 01:33N 36°35' E 014°06'1312.6
2015-Apr-24 00:34N 36°39' E 013°51'1512.8
2015-Apr-23 23:25N 36°43' E 013°34'1113.0
2015-Apr-23 22:32N 36°47' E 013°20'1312.7
2015-Apr-23 21:33N 36°51' E 013°06'1412.4
2015-Apr-23 20:26N 36°54' E 012°49'1112.2
2015-Apr-23 19:33N 36°58' E 012°36'7612.4
2015-Apr-23 13:27N 37°23' E 011°07'1112.1
2015-Apr-23 12:32N 37°26' E 010°53'37712.4
2015-Apr-22 06:05N 36°57' E 003°01'18411.8
2015-Apr-21 14:27N 36°31' W 000°46'21710.9
2015-Apr-20 18:33N 36°01' W 005°13'11 3.6
2015-Apr-20 15:31N 36°06' W 005°25'0 0.0
2015-Apr-20 04:31N 36°06' W 005°25'0 0.0
2015-Apr-20 03:19N 36°06' W 005°25'0 0.1
2015-Apr-20 02:26N 36°06' W 005°25'2 2.7
2015-Apr-20 01:33N 36°05' W 005°23'7 7.1
2015-Apr-20 00:33N 36°08' W 005°15'1 0.2
2015-Apr-19 20:07N 36°08' W 005°14'0 0.5
2015-Apr-19 19:19N 36°08' W 005°14'0 0.4
2015-Apr-19 18:06N 36°08' W 005°15'4 7.7
2015-Apr-19 17:33N 36°05' W 005°19'1211.6
2015-Apr-19 16:32N 35°57' W 005°30'1312.6
2015-Apr-19 15:32N 35°55' W 005°45'  
Track history (hours):
 
Tides and Currents Weather Stations Pressure Air Temp Water Temp Dewpoint Dewpoint Depression Visibility Wind Speed Wind Dir Waves Ship Positions

BBC Delaware

Last reported at 2015-Apr-27 09:17 UTC. Time now 2015-May-25 13:37 UTC.
Position N 31°23' E 032°19'.
Warning: this ship's position is 28 days out of date.

Length 138 m; draft 7.7 m.

Type: Cargo ship. MMSI: 305057000.

Date/timePositionNaut miles runAvg speedWind from/ knotsBaromVisibWave heightAir tempDewpointWater temp
2015-Apr-27 09:17N 31°23' E 032°19'7 8.9
2015-Apr-27 08:31N 31°29' E 032°14'1111.4
2015-Apr-27 07:33N 31°37' E 032°06'1211.3
2015-Apr-27 06:31N 31°46' E 031°56'1111.6
2015-Apr-27 05:34N 31°49' E 031°43'1211.6
2015-Apr-27 04:31N 31°53' E 031°30'1512.0
2015-Apr-27 03:17N 31°57' E 031°13'3211.8
2015-Apr-27 00:32N 32°07' E 030°37'1211.7
2015-Apr-26 23:33N 32°11' E 030°24'1211.8
2015-Apr-26 22:33N 32°14' E 030°11'1211.9
2015-Apr-26 21:33N 32°18' E 029°57'1211.6
2015-Apr-26 20:33N 32°22' E 029°44'2711.5
2015-Apr-26 18:13N 32°30' E 029°14'2011.4
2015-Apr-26 16:28N 32°36' E 028°51'2311.5
2015-Apr-26 14:27N 32°44' E 028°25'1011.6
2015-Apr-26 13:33N 32°47' E 028°13'  
2015-Apr-24 03:32N 36°27' E 014°36'1312.6
2015-Apr-24 02:30N 36°31' E 014°20'1212.6
2015-Apr-24 01:33N 36°35' E 014°06'1312.6
2015-Apr-24 00:34N 36°39' E 013°51'1512.8
2015-Apr-23 23:25N 36°43' E 013°34'1113.0
2015-Apr-23 22:32N 36°47' E 013°20'1312.7
2015-Apr-23 21:33N 36°51' E 013°06'1412.4
2015-Apr-23 20:26N 36°54' E 012°49'1112.2
2015-Apr-23 19:33N 36°58' E 012°36'7612.4
2015-Apr-23 13:27N 37°23' E 011°07'1112.1
2015-Apr-23 12:32N 37°26' E 010°53'37712.4
2015-Apr-22 06:05N 36°57' E 003°01'18411.8
2015-Apr-21 14:27N 36°31' W 000°46'21710.9
2015-Apr-20 18:33N 36°01' W 005°13'11 3.6
2015-Apr-20 15:31N 36°06' W 005°25'0 0.0
2015-Apr-20 04:31N 36°06' W 005°25'0 0.0
2015-Apr-20 03:19N 36°06' W 005°25'0 0.1
2015-Apr-20 02:26N 36°06' W 005°25'2 2.7
2015-Apr-20 01:33N 36°05' W 005°23'7 7.1
2015-Apr-20 00:33N 36°08' W 005°15'1 0.2
2015-Apr-19 20:07N 36°08' W 005°14'0 0.5
2015-Apr-19 19:19N 36°08' W 005°14'0 0.4
2015-Apr-19 18:06N 36°08' W 005°15'4 7.7
2015-Apr-19 17:33N 36°05' W 005°19'1211.6
2015-Apr-19 16:32N 35°57' W 005°30'1312.6
2015-Apr-19 15:32N 35°55' W 005°45'  

Dump ship's entire track history